sensor_id;sensor_type;location;lat;lon;timestamp;pressure;altitude;pressure_sealevel;temperature;humidity
66430;BME280;53242;51.694;10.006;2023-07-13T00:01:39;99357.69;;;19.55;56.83
66430;BME280;53242;51.694;10.006;2023-07-13T00:04:01;99353.22;;;19.66;56.20
66430;BME280;53242;51.694;10.006;2023-07-13T00:06:24;99359.94;;;19.68;56.37
66430;BME280;53242;51.694;10.006;2023-07-13T00:08:46;99365.31;;;19.74;56.40
66430;BME280;53242;51.694;10.006;2023-07-13T00:11:09;99362.19;;;19.82;55.97
66430;BME280;53242;51.694;10.006;2023-07-13T00:13:32;99366.34;;;19.67;56.73
66430;BME280;53242;51.694;10.006;2023-07-13T00:15:56;99369.66;;;19.80;56.27
66430;BME280;53242;51.694;10.006;2023-07-13T00:18:19;99367.28;;;19.83;56.21
66430;BME280;53242;51.694;10.006;2023-07-13T00:20:42;99364.94;;;19.97;55.80
66430;BME280;53242;51.694;10.006;2023-07-13T00:23:05;99363.31;;;19.91;56.26
66430;BME280;53242;51.694;10.006;2023-07-13T00:25:27;99375.06;;;19.85;56.40
66430;BME280;53242;51.694;10.006;2023-07-13T00:27:53;99376.84;;;19.74;57.10
66430;BME280;53242;51.694;10.006;2023-07-13T00:30:16;99367.53;;;19.82;56.81
66430;BME280;53242;51.694;10.006;2023-07-13T00:32:38;99371.88;;;19.88;56.70
66430;BME280;53242;51.694;10.006;2023-07-13T00:35:02;99378.31;;;19.92;56.53
66430;BME280;53242;51.694;10.006;2023-07-13T00:37:26;99369.25;;;19.98;56.40
66430;BME280;53242;51.694;10.006;2023-07-13T00:39:49;99372.00;;;20.14;55.97
66430;BME280;53242;51.694;10.006;2023-07-13T00:42:11;99365.28;;;20.11;56.12
66430;BME280;53242;51.694;10.006;2023-07-13T00:44:34;99361.88;;;20.21;55.81
66430;BME280;53242;51.694;10.006;2023-07-13T00:46:56;99366.69;;;20.24;55.77
66430;BME280;53242;51.694;10.006;2023-07-13T00:49:20;99362.59;;;20.06;57.96
66430;BME280;53242;51.694;10.006;2023-07-13T00:51:53;99362.19;;;19.82;57.91
66430;BME280;53242;51.694;10.006;2023-07-13T00:54:22;99362.25;;;19.54;59.19
66430;BME280;53242;51.694;10.006;2023-07-13T00:56:49;99368.19;;;19.62;59.18
66430;BME280;53242;51.694;10.006;2023-07-13T00:59:15;99366.25;;;19.52;59.62
66430;BME280;53242;51.694;10.006;2023-07-13T01:01:39;99366.84;;;19.59;58.96
66430;BME280;53242;51.694;10.006;2023-07-13T01:04:01;99365.22;;;19.58;59.22
66430;BME280;53242;51.694;10.006;2023-07-13T01:06:24;99368.47;;;19.65;58.77
66430;BME280;53242;51.694;10.006;2023-07-13T01:08:47;99372.03;;;19.76;58.15
66430;BME280;53242;51.694;10.006;2023-07-13T01:11:10;99368.13;;;19.89;57.48
66430;BME280;53242;51.694;10.006;2023-07-13T01:13:33;99371.38;;;19.59;57.86
66430;BME280;53242;51.694;10.006;2023-07-13T01:15:58;99376.59;;;19.81;56.65
66430;BME280;53242;51.694;10.006;2023-07-13T01:18:28;99368.75;;;19.69;56.42
66430;BME280;53242;51.694;10.006;2023-07-13T01:20:56;99376.44;;;19.55;56.59
66430;BME280;53242;51.694;10.006;2023-07-13T01:23:19;99375.56;;;19.44;56.74
66430;BME280;53242;51.694;10.006;2023-07-13T01:25:43;99370.97;;;19.39;56.75
66430;BME280;53242;51.694;10.006;2023-07-13T01:28:07;99375.06;;;19.52;56.46
66430;BME280;53242;51.694;10.006;2023-07-13T01:30:35;99374.88;;;19.27;57.27
66430;BME280;53242;51.694;10.006;2023-07-13T01:32:58;99365.59;;;19.39;56.60
66430;BME280;53242;51.694;10.006;2023-07-13T01:35:22;99373.41;;;19.41;56.75
66430;BME280;53242;51.694;10.006;2023-07-13T01:37:45;99372.00;;;19.33;56.96
66430;BME280;53242;51.694;10.006;2023-07-13T01:40:08;99377.44;;;19.44;56.48
66430;BME280;53242;51.694;10.006;2023-07-13T01:42:31;99384.47;;;19.22;57.01
66430;BME280;53242;51.694;10.006;2023-07-13T01:44:53;99380.19;;;19.21;57.62
66430;BME280;53242;51.694;10.006;2023-07-13T01:47:16;99385.09;;;19.30;57.71
66430;BME280;53242;51.694;10.006;2023-07-13T01:49:38;99381.13;;;19.05;58.69
66430;BME280;53242;51.694;10.006;2023-07-13T01:52:01;99381.66;;;19.07;59.24
66430;BME280;53242;51.694;10.006;2023-07-13T01:54:23;99384.81;;;19.31;57.98
66430;BME280;53242;51.694;10.006;2023-07-13T01:56:46;99382.53;;;19.13;58.95
66430;BME280;53242;51.694;10.006;2023-07-13T01:59:09;99388.19;;;19.21;58.95
66430;BME280;53242;51.694;10.006;2023-07-13T02:01:32;99391.00;;;19.04;59.51
66430;BME280;53242;51.694;10.006;2023-07-13T02:03:54;99388.91;;;18.84;60.53
66430;BME280;53242;51.694;10.006;2023-07-13T02:06:16;99382.47;;;18.85;60.34
66430;BME280;53242;51.694;10.006;2023-07-13T02:08:40;99389.72;;;18.85;60.34
66430;BME280;53242;51.694;10.006;2023-07-13T02:11:03;99387.34;;;18.88;60.49
66430;BME280;53242;51.694;10.006;2023-07-13T02:13:25;99385.06;;;18.97;60.29
66430;BME280;53242;51.694;10.006;2023-07-13T02:15:50;99388.16;;;19.16;59.53
66430;BME280;53242;51.694;10.006;2023-07-13T02:18:12;99387.09;;;19.17;59.34
66430;BME280;53242;51.694;10.006;2023-07-13T02:20:39;99383.16;;;19.25;58.79
66430;BME280;53242;51.694;10.006;2023-07-13T02:23:02;99373.81;;;19.28;58.43
66430;BME280;53242;51.694;10.006;2023-07-13T02:25:24;99371.97;;;19.28;58.36
66430;BME280;53242;51.694;10.006;2023-07-13T02:27:48;99376.66;;;19.16;58.71
66430;BME280;53242;51.694;10.006;2023-07-13T02:30:13;99370.59;;;19.26;58.97
66430;BME280;53242;51.694;10.006;2023-07-13T02:32:36;99365.94;;;18.88;60.02
66430;BME280;53242;51.694;10.006;2023-07-13T02:34:58;99365.38;;;18.86;60.52
66430;BME280;53242;51.694;10.006;2023-07-13T02:37:20;99366.72;;;19.11;59.96
66430;BME280;53242;51.694;10.006;2023-07-13T02:39:43;99357.75;;;18.95;60.61
66430;BME280;53242;51.694;10.006;2023-07-13T02:42:06;99351.72;;;18.83;61.03
66430;BME280;53242;51.694;10.006;2023-07-13T02:44:29;99345.41;;;18.67;61.62
66430;BME280;53242;51.694;10.006;2023-07-13T02:46:52;99342.44;;;18.63;61.89
66430;BME280;53242;51.694;10.006;2023-07-13T02:49:14;99333.38;;;18.92;60.91
66430;BME280;53242;51.694;10.006;2023-07-13T02:51:40;99352.53;;;18.56;61.76
66430;BME280;53242;51.694;10.006;2023-07-13T02:54:03;99342.00;;;18.49;62.33
66430;BME280;53242;51.694;10.006;2023-07-13T02:56:27;99345.19;;;18.46;62.46
66430;BME280;53242;51.694;10.006;2023-07-13T02:58:51;99342.81;;;18.28;62.79
66430;BME280;53242;51.694;10.006;2023-07-13T03:01:13;99338.63;;;18.32;62.53
66430;BME280;53242;51.694;10.006;2023-07-13T03:03:40;99342.16;;;18.37;62.38
66430;BME280;53242;51.694;10.006;2023-07-13T03:06:04;99355.56;;;18.20;62.80
66430;BME280;53242;51.694;10.006;2023-07-13T03:08:36;99344.13;;;18.25;62.94
66430;BME280;53242;51.694;10.006;2023-07-13T03:11:04;99347.94;;;18.29;62.97
66430;BME280;53242;51.694;10.006;2023-07-13T03:13:30;99346.75;;;18.20;62.71
66430;BME280;53242;51.694;10.006;2023-07-13T03:15:53;99343.00;;;18.21;62.82
66430;BME280;53242;51.694;10.006;2023-07-13T03:18:15;99348.75;;;18.30;62.32
66430;BME280;53242;51.694;10.006;2023-07-13T03:20:38;99349.84;;;18.34;62.03
66430;BME280;53242;51.694;10.006;2023-07-13T03:23:00;99355.25;;;18.39;61.57
66430;BME280;53242;51.694;10.006;2023-07-13T03:25:23;99361.34;;;18.34;61.42
66430;BME280;53242;51.694;10.006;2023-07-13T03:27:46;99367.69;;;18.28;61.10
66430;BME280;53242;51.694;10.006;2023-07-13T03:30:09;99362.66;;;18.32;60.84
66430;BME280;53242;51.694;10.006;2023-07-13T03:32:32;99365.19;;;18.44;60.23
66430;BME280;53242;51.694;10.006;2023-07-13T03:34:55;99366.69;;;18.34;60.44
66430;BME280;53242;51.694;10.006;2023-07-13T03:37:18;99367.03;;;18.43;59.80
66430;BME280;53242;51.694;10.006;2023-07-13T03:39:40;99362.53;;;18.44;59.92
66430;BME280;53242;51.694;10.006;2023-07-13T03:42:03;99372.47;;;18.48;59.62
66430;BME280;53242;51.694;10.006;2023-07-13T03:44:25;99372.03;;;18.34;59.97
66430;BME280;53242;51.694;10.006;2023-07-13T03:46:52;99371.66;;;18.48;59.67
66430;BME280;53242;51.694;10.006;2023-07-13T03:49:15;99382.34;;;18.48;60.49
66430;BME280;53242;51.694;10.006;2023-07-13T03:51:38;99386.31;;;18.45;60.43
66430;BME280;53242;51.694;10.006;2023-07-13T03:54:01;99391.88;;;18.38;61.87
66430;BME280;53242;51.694;10.006;2023-07-13T03:56:24;99393.22;;;18.41;62.38
66430;BME280;53242;51.694;10.006;2023-07-13T03:58:49;99400.94;;;18.37;62.86
66430;BME280;53242;51.694;10.006;2023-07-13T04:01:18;99408.88;;;18.32;63.20
66430;BME280;53242;51.694;10.006;2023-07-13T04:03:42;99410.97;;;18.30;63.31
66430;BME280;53242;51.694;10.006;2023-07-13T04:06:06;99419.34;;;18.17;63.13
66430;BME280;53242;51.694;10.006;2023-07-13T04:08:31;99428.84;;;18.07;63.74
66430;BME280;53242;51.694;10.006;2023-07-13T04:10:54;99424.63;;;18.12;63.42
66430;BME280;53242;51.694;10.006;2023-07-13T04:13:16;99423.06;;;18.16;63.99
66430;BME280;53242;51.694;10.006;2023-07-13T04:15:39;99426.09;;;18.02;63.86
66430;BME280;53242;51.694;10.006;2023-07-13T04:18:02;99423.44;;;18.02;64.29
66430;BME280;53242;51.694;10.006;2023-07-13T04:20:25;99423.91;;;18.16;63.58
66430;BME280;53242;51.694;10.006;2023-07-13T04:22:48;99431.34;;;18.14;64.22
66430;BME280;53242;51.694;10.006;2023-07-13T04:25:10;99427.88;;;18.14;64.21
66430;BME280;53242;51.694;10.006;2023-07-13T04:27:33;99438.56;;;18.14;63.85
66430;BME280;53242;51.694;10.006;2023-07-13T04:29:55;99436.44;;;18.16;63.67
66430;BME280;53242;51.694;10.006;2023-07-13T04:32:17;99439.69;;;18.18;63.78
66430;BME280;53242;51.694;10.006;2023-07-13T04:34:40;99442.16;;;18.24;63.29
66430;BME280;53242;51.694;10.006;2023-07-13T04:37:02;99442.97;;;18.25;63.69
66430;BME280;53242;51.694;10.006;2023-07-13T04:39:26;99447.44;;;18.19;63.75
66430;BME280;53242;51.694;10.006;2023-07-13T04:41:49;99455.28;;;18.26;63.42
66430;BME280;53242;51.694;10.006;2023-07-13T04:44:11;99451.47;;;18.22;63.31
66430;BME280;53242;51.694;10.006;2023-07-13T04:46:33;99457.06;;;18.20;63.72
66430;BME280;53242;51.694;10.006;2023-07-13T04:48:56;99453.34;;;18.21;63.57
66430;BME280;53242;51.694;10.006;2023-07-13T04:51:20;99452.34;;;18.28;63.29
66430;BME280;53242;51.694;10.006;2023-07-13T04:53:42;99460.22;;;18.17;63.90
66430;BME280;53242;51.694;10.006;2023-07-13T04:56:05;99459.50;;;18.22;63.57
66430;BME280;53242;51.694;10.006;2023-07-13T04:58:28;99462.88;;;18.34;63.56
66430;BME280;53242;51.694;10.006;2023-07-13T05:00:50;99454.81;;;18.73;61.84
66430;BME280;53242;51.694;10.006;2023-07-13T05:03:13;99459.56;;;18.66;62.04
66430;BME280;53242;51.694;10.006;2023-07-13T05:05:35;99455.03;;;19.16;60.35
66430;BME280;53242;51.694;10.006;2023-07-13T05:07:58;99459.00;;;19.68;58.95
66430;BME280;53242;51.694;10.006;2023-07-13T05:10:20;99459.50;;;19.93;58.24
66430;BME280;53242;51.694;10.006;2023-07-13T05:12:43;99464.94;;;20.08;57.80
66430;BME280;53242;51.694;10.006;2023-07-13T05:15:06;99468.59;;;20.40;56.57
66430;BME280;53242;51.694;10.006;2023-07-13T05:17:28;99470.31;;;20.56;56.02
66430;BME280;53242;51.694;10.006;2023-07-13T05:19:51;99462.03;;;20.68;55.43
66430;BME280;53242;51.694;10.006;2023-07-13T05:22:13;99466.00;;;20.55;55.66
66430;BME280;53242;51.694;10.006;2023-07-13T05:24:36;99468.19;;;20.68;54.75
66430;BME280;53242;51.694;10.006;2023-07-13T05:26:58;99464.59;;;20.42;54.62
66430;BME280;53242;51.694;10.006;2023-07-13T05:29:21;99464.38;;;21.12;53.63
66430;BME280;53242;51.694;10.006;2023-07-13T05:31:44;99465.94;;;21.03;54.10
66430;BME280;53242;51.694;10.006;2023-07-13T05:34:06;99461.63;;;21.07;54.06
66430;BME280;53242;51.694;10.006;2023-07-13T05:36:29;99470.03;;;21.47;52.75
66430;BME280;53242;51.694;10.006;2023-07-13T05:38:51;99458.81;;;21.71;52.07
66430;BME280;53242;51.694;10.006;2023-07-13T05:41:14;99462.47;;;21.13;52.97
66430;BME280;53242;51.694;10.006;2023-07-13T05:43:36;99459.56;;;21.35;52.95
66430;BME280;53242;51.694;10.006;2023-07-13T05:45:58;99465.94;;;21.13;53.47
66430;BME280;53242;51.694;10.006;2023-07-13T05:48:21;99467.84;;;21.13;53.57
66430;BME280;53242;51.694;10.006;2023-07-13T05:50:43;99471.69;;;21.74;52.40
66430;BME280;53242;51.694;10.006;2023-07-13T05:53:06;99464.69;;;21.57;52.79
66430;BME280;53242;51.694;10.006;2023-07-13T05:55:28;99472.47;;;21.38;52.70
66430;BME280;53242;51.694;10.006;2023-07-13T05:57:51;99470.03;;;21.42;52.22
66430;BME280;53242;51.694;10.006;2023-07-13T06:00:14;99471.16;;;21.72;51.39
66430;BME280;53242;51.694;10.006;2023-07-13T06:02:36;99467.38;;;21.83;51.11
66430;BME280;53242;51.694;10.006;2023-07-13T06:04:59;99469.16;;;21.05;52.32
66430;BME280;53242;51.694;10.006;2023-07-13T06:07:21;99473.50;;;21.22;51.94
66430;BME280;53242;51.694;10.006;2023-07-13T06:09:44;99472.66;;;21.11;51.47
66430;BME280;53242;51.694;10.006;2023-07-13T06:12:06;99475.28;;;20.90;51.61
66430;BME280;53242;51.694;10.006;2023-07-13T06:14:29;99474.44;;;20.74;51.54
66430;BME280;53242;51.694;10.006;2023-07-13T06:16:51;99471.94;;;20.62;51.72
66430;BME280;53242;51.694;10.006;2023-07-13T06:19:14;99478.75;;;20.85;51.27
66430;BME280;53242;51.694;10.006;2023-07-13T06:21:36;99477.97;;;20.95;51.03
66430;BME280;53242;51.694;10.006;2023-07-13T06:23:58;99490.81;;;20.78;51.09
66430;BME280;53242;51.694;10.006;2023-07-13T06:26:21;99489.50;;;20.43;51.86
66430;BME280;53242;51.694;10.006;2023-07-13T06:28:44;99483.91;;;20.44;51.52
66430;BME280;53242;51.694;10.006;2023-07-13T06:31:07;99489.56;;;20.53;51.54
66430;BME280;53242;51.694;10.006;2023-07-13T06:33:30;99499.66;;;20.83;51.09
66430;BME280;53242;51.694;10.006;2023-07-13T06:35:52;99489.56;;;21.01;50.55
66430;BME280;53242;51.694;10.006;2023-07-13T06:38:17;99490.63;;;21.05;50.69
66430;BME280;53242;51.694;10.006;2023-07-13T06:40:40;99509.50;;;21.36;49.50
66430;BME280;53242;51.694;10.006;2023-07-13T06:43:03;99499.75;;;21.04;49.95
66430;BME280;53242;51.694;10.006;2023-07-13T06:45:25;99496.28;;;21.09;49.69
66430;BME280;53242;51.694;10.006;2023-07-13T06:47:48;99499.16;;;20.97;50.01
66430;BME280;53242;51.694;10.006;2023-07-13T06:50:11;99501.28;;;20.79;50.78
66430;BME280;53242;51.694;10.006;2023-07-13T06:52:34;99489.88;;;21.25;49.64
66430;BME280;53242;51.694;10.006;2023-07-13T06:54:56;99491.47;;;21.26;49.52
66430;BME280;53242;51.694;10.006;2023-07-13T06:57:19;99492.31;;;21.37;49.17
66430;BME280;53242;51.694;10.006;2023-07-13T06:59:41;99488.72;;;21.00;50.08
66430;BME280;53242;51.694;10.006;2023-07-13T07:02:04;99484.19;;;21.01;49.60
66430;BME280;53242;51.694;10.006;2023-07-13T07:04:26;99487.91;;;20.95;49.30
66430;BME280;53242;51.694;10.006;2023-07-13T07:06:49;99504.50;;;20.92;49.34
66430;BME280;53242;51.694;10.006;2023-07-13T07:09:11;99506.91;;;20.83;49.30
66430;BME280;53242;51.694;10.006;2023-07-13T07:11:33;99494.97;;;21.16;49.44
66430;BME280;53242;51.694;10.006;2023-07-13T07:13:56;99494.94;;;21.11;49.32
66430;BME280;53242;51.694;10.006;2023-07-13T07:16:19;99494.69;;;21.18;49.27
66430;BME280;53242;51.694;10.006;2023-07-13T07:18:42;99506.25;;;21.39;49.17
66430;BME280;53242;51.694;10.006;2023-07-13T07:21:04;99495.47;;;21.18;49.03
66430;BME280;53242;51.694;10.006;2023-07-13T07:23:27;99500.03;;;21.13;49.30
66430;BME280;53242;51.694;10.006;2023-07-13T07:25:49;99508.09;;;21.18;48.88
66430;BME280;53242;51.694;10.006;2023-07-13T07:28:15;99512.97;;;21.31;48.28
66430;BME280;53242;51.694;10.006;2023-07-13T07:30:47;99512.31;;;20.93;48.80
66430;BME280;53242;51.694;10.006;2023-07-13T07:33:09;99500.13;;;21.54;47.66
66430;BME280;53242;51.694;10.006;2023-07-13T07:35:32;99512.78;;;21.69;47.72
66430;BME280;53242;51.694;10.006;2023-07-13T07:37:54;99503.34;;;21.41;48.48
66430;BME280;53242;51.694;10.006;2023-07-13T07:40:17;99501.47;;;22.18;47.93
66430;BME280;53242;51.694;10.006;2023-07-13T07:42:40;99500.13;;;22.16;47.23
66430;BME280;53242;51.694;10.006;2023-07-13T07:45:02;99502.00;;;22.41;47.09
66430;BME280;53242;51.694;10.006;2023-07-13T07:47:25;99507.41;;;22.10;47.28
66430;BME280;53242;51.694;10.006;2023-07-13T07:49:47;99504.16;;;22.18;47.42
66430;BME280;53242;51.694;10.006;2023-07-13T07:52:10;99509.25;;;22.20;47.70
66430;BME280;53242;51.694;10.006;2023-07-13T07:54:32;99513.81;;;22.50;47.10
66430;BME280;53242;51.694;10.006;2023-07-13T07:56:55;99512.47;;;22.32;46.88
66430;BME280;53242;51.694;10.006;2023-07-13T07:59:18;99512.78;;;22.36;46.27
66430;BME280;53242;51.694;10.006;2023-07-13T08:01:40;99509.81;;;22.17;46.54
66430;BME280;53242;51.694;10.006;2023-07-13T08:04:03;99514.63;;;22.20;46.62
66430;BME280;53242;51.694;10.006;2023-07-13T08:06:25;99513.56;;;22.21;46.34
66430;BME280;53242;51.694;10.006;2023-07-13T08:08:48;99511.66;;;22.47;45.79
66430;BME280;53242;51.694;10.006;2023-07-13T08:11:10;99515.06;;;22.79;45.54
66430;BME280;53242;51.694;10.006;2023-07-13T08:13:33;99511.25;;;22.90;45.79
66430;BME280;53242;51.694;10.006;2023-07-13T08:15:56;99520.00;;;23.22;45.10
66430;BME280;53242;51.694;10.006;2023-07-13T08:18:18;99517.63;;;23.15;44.98
66430;BME280;53242;51.694;10.006;2023-07-13T08:20:41;99520.63;;;23.03;45.28
66430;BME280;53242;51.694;10.006;2023-07-13T08:23:03;99515.91;;;23.29;44.78
66430;BME280;53242;51.694;10.006;2023-07-13T08:25:25;99514.63;;;23.61;44.62
66430;BME280;53242;51.694;10.006;2023-07-13T08:27:48;99513.28;;;23.64;44.61
66430;BME280;53242;51.694;10.006;2023-07-13T08:30:10;99515.09;;;23.34;44.57
66430;BME280;53242;51.694;10.006;2023-07-13T08:32:33;99524.88;;;23.09;45.14
66430;BME280;53242;51.694;10.006;2023-07-13T08:34:55;99530.50;;;23.18;44.84
66430;BME280;53242;51.694;10.006;2023-07-13T08:37:18;99526.22;;;23.17;44.75
66430;BME280;53242;51.694;10.006;2023-07-13T08:39:40;99527.56;;;23.14;44.83
66430;BME280;53242;51.694;10.006;2023-07-13T08:44:57;99526.28;;;22.96;44.52
66430;BME280;53242;51.694;10.006;2023-07-13T08:47:24;99523.09;;;23.44;44.34
66430;BME280;53242;51.694;10.006;2023-07-13T08:49:48;99517.75;;;23.74;43.54
66430;BME280;53242;51.694;10.006;2023-07-13T08:52:28;99509.69;;;23.74;43.06
66430;BME280;53242;51.694;10.006;2023-07-13T08:54:55;99529.69;;;23.68;43.10
66430;BME280;53242;51.694;10.006;2023-07-13T08:57:21;99526.41;;;23.31;43.22
66430;BME280;53242;51.694;10.006;2023-07-13T08:59:47;99525.97;;;23.08;44.23
66430;BME280;53242;51.694;10.006;2023-07-13T09:02:23;99532.69;;;23.16;43.93
66430;BME280;53242;51.694;10.006;2023-07-13T09:05:00;99540.47;;;23.23;43.94
66430;BME280;53242;51.694;10.006;2023-07-13T09:07:34;99529.06;;;23.36;43.83
66430;BME280;53242;51.694;10.006;2023-07-13T09:12:45;99536.84;;;22.82;44.53
66430;BME280;53242;51.694;10.006;2023-07-13T09:15:24;99531.19;;;22.84;44.52
66430;BME280;53242;51.694;10.006;2023-07-13T09:17:50;99530.22;;;22.33;45.64
66430;BME280;53242;51.694;10.006;2023-07-13T09:20:25;99535.31;;;22.50;45.26
66430;BME280;53242;51.694;10.006;2023-07-13T09:22:50;99529.91;;;22.61;45.28
66430;BME280;53242;51.694;10.006;2023-07-13T09:25:31;99534.50;;;22.55;45.20
66430;BME280;53242;51.694;10.006;2023-07-13T09:27:57;99536.00;;;22.87;45.05
66430;BME280;53242;51.694;10.006;2023-07-13T09:30:27;99541.16;;;23.39;44.82
66430;BME280;53242;51.694;10.006;2023-07-13T09:32:53;99528.19;;;24.20;44.31
66430;BME280;53242;51.694;10.006;2023-07-13T09:35:19;99532.50;;;23.52;43.13
66430;BME280;53242;51.694;10.006;2023-07-13T09:37:44;99520.00;;;24.30;42.41
66430;BME280;53242;51.694;10.006;2023-07-13T09:40:12;99534.75;;;24.62;41.62
66430;BME280;53242;51.694;10.006;2023-07-13T09:42:36;99532.16;;;23.99;42.11
66430;BME280;53242;51.694;10.006;2023-07-13T09:45:00;99533.22;;;23.63;42.69
66430;BME280;53242;51.694;10.006;2023-07-13T09:47:38;99540.44;;;23.28;42.61
66430;BME280;53242;51.694;10.006;2023-07-13T09:50:14;99539.38;;;23.63;42.76
66430;BME280;53242;51.694;10.006;2023-07-13T09:55:26;99534.31;;;23.57;44.13
66430;BME280;53242;51.694;10.006;2023-07-13T09:57:48;99542.78;;;23.40;43.70
66430;BME280;53242;51.694;10.006;2023-07-13T10:00:21;99537.34;;;23.50;43.29
66430;BME280;53242;51.694;10.006;2023-07-13T10:02:44;99530.06;;;24.20;42.90
66430;BME280;53242;51.694;10.006;2023-07-13T10:05:13;99535.81;;;24.42;42.72
66430;BME280;53242;51.694;10.006;2023-07-13T10:07:39;99543.06;;;24.18;42.60
66430;BME280;53242;51.694;10.006;2023-07-13T10:10:02;99538.00;;;24.65;42.23
66430;BME280;53242;51.694;10.006;2023-07-13T10:12:24;99537.06;;;23.91;41.41
66430;BME280;53242;51.694;10.006;2023-07-13T10:14:47;99538.25;;;23.75;42.27
66430;BME280;53242;51.694;10.006;2023-07-13T10:17:13;99547.38;;;24.13;41.36
66430;BME280;53242;51.694;10.006;2023-07-13T10:19:36;99535.47;;;24.20;40.75
66430;BME280;53242;51.694;10.006;2023-07-13T10:22:00;99543.25;;;24.51;40.32
66430;BME280;53242;51.694;10.006;2023-07-13T10:24:29;99547.72;;;24.07;41.10
66430;BME280;53242;51.694;10.006;2023-07-13T10:29:43;99544.22;;;24.06;42.27
66430;BME280;53242;51.694;10.006;2023-07-13T10:32:12;99535.72;;;24.23;42.02
66430;BME280;53242;51.694;10.006;2023-07-13T10:34:35;99539.13;;;24.58;40.10
66430;BME280;53242;51.694;10.006;2023-07-13T10:36:58;99549.47;;;24.75;40.44
66430;BME280;53242;51.694;10.006;2023-07-13T10:39:23;99548.16;;;24.73;40.52
66430;BME280;53242;51.694;10.006;2023-07-13T10:41:57;99545.03;;;24.90;40.26
66430;BME280;53242;51.694;10.006;2023-07-13T10:44:25;99548.53;;;24.07;41.31
66430;BME280;53242;51.694;10.006;2023-07-13T10:46:48;99548.69;;;23.87;41.21
66430;BME280;53242;51.694;10.006;2023-07-13T10:49:11;99541.50;;;23.72;40.79
66430;BME280;53242;51.694;10.006;2023-07-13T10:51:34;99543.53;;;24.49;40.58
66430;BME280;53242;51.694;10.006;2023-07-13T10:54:21;99545.84;;;24.61;40.73
66430;BME280;53242;51.694;10.006;2023-07-13T10:56:45;99548.22;;;25.35;39.73
66430;BME280;53242;51.694;10.006;2023-07-13T10:59:26;99550.84;;;24.19;39.72
66430;BME280;53242;51.694;10.006;2023-07-13T11:04:26;99554.63;;;23.84;40.52
66430;BME280;53242;51.694;10.006;2023-07-13T11:06:53;99547.56;;;23.93;40.54
66430;BME280;53242;51.694;10.006;2023-07-13T11:09:31;99553.81;;;23.43;41.26
66430;BME280;53242;51.694;10.006;2023-07-13T11:11:56;99561.38;;;23.81;41.30
66430;BME280;53242;51.694;10.006;2023-07-13T11:14:35;99549.88;;;24.34;39.90
66430;BME280;53242;51.694;10.006;2023-07-13T11:22:48;99545.16;;;23.91;40.75
66430;BME280;53242;51.694;10.006;2023-07-13T11:27:45;99549.88;;;23.70;40.49
66430;BME280;53242;51.694;10.006;2023-07-13T11:32:39;99549.75;;;23.91;40.79
66430;BME280;53242;51.694;10.006;2023-07-13T11:35:02;99551.63;;;23.90;40.80
66430;BME280;53242;51.694;10.006;2023-07-13T11:37:26;99540.59;;;23.92;40.54
66430;BME280;53242;51.694;10.006;2023-07-13T11:39:50;99545.44;;;23.45;40.78
66430;BME280;53242;51.694;10.006;2023-07-13T11:42:16;99545.28;;;23.71;40.59
66430;BME280;53242;51.694;10.006;2023-07-13T11:44:46;99540.38;;;24.42;39.91
66430;BME280;53242;51.694;10.006;2023-07-13T11:47:18;99534.56;;;24.59;40.04
66430;BME280;53242;51.694;10.006;2023-07-13T11:49:44;99536.97;;;24.60;39.11
66430;BME280;53242;51.694;10.006;2023-07-13T11:52:18;99526.75;;;25.25;39.49
66430;BME280;53242;51.694;10.006;2023-07-13T11:54:53;99528.09;;;25.80;38.50
66430;BME280;53242;51.694;10.006;2023-07-13T11:59:49;99526.06;;;24.95;39.44
66430;BME280;53242;51.694;10.006;2023-07-13T12:04:47;99502.19;;;24.59;40.05
66430;BME280;53242;51.694;10.006;2023-07-13T12:07:18;99534.22;;;25.09;39.73
66430;BME280;53242;51.694;10.006;2023-07-13T12:09:41;99532.63;;;24.65;39.16
66430;BME280;53242;51.694;10.006;2023-07-13T12:12:10;99524.84;;;24.58;38.58
66430;BME280;53242;51.694;10.006;2023-07-13T12:14:33;99528.41;;;25.02;38.25
66430;BME280;53242;51.694;10.006;2023-07-13T12:16:56;99527.69;;;24.72;39.20
66430;BME280;53242;51.694;10.006;2023-07-13T12:19:22;99527.44;;;25.11;38.64
66430;BME280;53242;51.694;10.006;2023-07-13T12:21:44;99521.47;;;25.15;38.67
66430;BME280;53242;51.694;10.006;2023-07-13T12:24:14;99526.44;;;24.64;38.79
66430;BME280;53242;51.694;10.006;2023-07-13T12:26:37;99526.22;;;24.55;39.45
66430;BME280;53242;51.694;10.006;2023-07-13T12:29:01;99526.09;;;24.41;39.84
66430;BME280;53242;51.694;10.006;2023-07-13T12:31:37;99521.72;;;24.45;39.51
66430;BME280;53242;51.694;10.006;2023-07-13T12:34:12;99524.28;;;24.32;39.97
66430;BME280;53242;51.694;10.006;2023-07-13T12:36:36;99533.81;;;23.94;40.34
66430;BME280;53242;51.694;10.006;2023-07-13T12:39:04;99529.84;;;24.16;39.19
66430;BME280;53242;51.694;10.006;2023-07-13T12:41:26;99533.59;;;24.74;39.04
66430;BME280;53242;51.694;10.006;2023-07-13T12:43:49;99533.97;;;24.62;39.76
66430;BME280;53242;51.694;10.006;2023-07-13T12:48:41;99529.66;;;24.61;39.92
66430;BME280;53242;51.694;10.006;2023-07-13T12:51:04;99531.22;;;24.91;39.95
66430;BME280;53242;51.694;10.006;2023-07-13T12:53:33;99536.47;;;24.53;40.07
66430;BME280;53242;51.694;10.006;2023-07-13T12:56:02;99534.47;;;24.69;39.74
66430;BME280;53242;51.694;10.006;2023-07-13T12:58:31;99537.31;;;25.21;39.11
66430;BME280;53242;51.694;10.006;2023-07-13T13:00:57;99544.00;;;25.05;38.69
66430;BME280;53242;51.694;10.006;2023-07-13T13:03:30;99534.75;;;25.11;37.94
66430;BME280;53242;51.694;10.006;2023-07-13T13:06:01;99530.94;;;24.93;37.58
66430;BME280;53242;51.694;10.006;2023-07-13T13:08:25;99539.13;;;25.07;37.62